createdAt,value
2019-05-22T21:43:09.914Z,42.25
2019-05-22T21:43:44.999Z,42.25
2019-05-22T21:44:44.971Z,42.46
2019-05-22T21:45:44.949Z,42.25
2019-05-22T21:46:44.920Z,42.35
2019-05-22T21:47:44.922Z,42.05
2019-05-22T21:48:44.871Z,41.96
2019-05-22T21:49:44.841Z,42.15
2019-05-22T21:50:44.800Z,42.35
2019-05-22T21:51:44.791Z,42.25
2019-05-22T21:52:44.775Z,42.46
2019-05-22T21:53:44.712Z,42.15
2019-05-22T21:54:44.681Z,42.55
2019-05-22T21:55:45.641Z,42.15
2019-05-22T21:56:44.614Z,42.15
2019-05-22T21:57:44.612Z,42.25
2019-05-22T21:58:44.555Z,41.96
2019-05-22T21:59:44.520Z,42.05
2019-05-22T22:00:37.762Z,42.25
2019-05-22T22:01:37.707Z,41.96
2019-05-22T22:02:37.720Z,41.85
2019-05-22T22:03:37.670Z,42.25
2019-05-22T22:04:37.714Z,42.05
2019-05-22T22:05:37.683Z,41.75
2019-05-22T22:06:37.648Z,42.15
2019-05-22T22:07:36.035Z,42.15
2019-05-22T22:08:35.953Z,42.25
2019-05-22T22:09:35.927Z,42.05
2019-05-22T22:10:35.895Z,41.96
2019-05-22T22:11:35.854Z,42.05
2019-05-22T22:12:35.867Z,42.15
2019-05-22T22:13:35.982Z,42.05
2019-05-22T22:14:35.702Z,42.05
2019-05-22T22:15:35.742Z,41.96
2019-05-22T22:16:01.591Z,41.85
2019-05-22T22:17:01.631Z,42.05
2019-05-22T22:18:01.547Z,41.85
2019-05-22T22:19:01.497Z,41.85
2019-05-22T22:20:01.540Z,41.96
2019-05-22T22:21:01.420Z,41.85
2019-05-22T22:22:01.380Z,41.75
2019-05-22T22:23:01.376Z,41.96
2019-05-22T22:24:01.311Z,41.96
2019-05-22T22:25:01.363Z,41.75
2019-05-22T22:26:01.239Z,41.75
2019-05-22T22:27:01.199Z,41.66
2019-05-22T22:28:01.197Z,41.85
2019-05-22T22:29:01.153Z,41.85
2019-05-22T22:30:01.105Z,41.85
2019-05-22T22:31:01.061Z,41.66
2019-05-22T22:32:01.092Z,41.75
2019-05-22T22:33:01.117Z,41.85
2019-05-22T22:34:00.959Z,41.75
2019-05-22T22:35:00.933Z,41.66
2019-05-22T22:36:00.892Z,41.96
2019-05-22T22:37:00.861Z,41.75
